createdAt,value
2022-10-07T00:00:46.726Z,12.07
2022-10-07T00:03:14.411Z,15.75
2022-10-07T00:05:41.715Z,15.35
2022-10-07T00:08:08.337Z,13.25
2022-10-07T00:10:43.225Z,14.18
2022-10-07T00:13:12.116Z,17.13
2022-10-07T00:15:39.089Z,15.02
2022-10-07T00:18:06.034Z,13.82
2022-10-07T00:20:39.739Z,14.48
2022-10-07T00:23:08.133Z,14.10
2022-10-07T00:25:38.000Z,12.05
2022-10-07T00:28:05.241Z,13.63
2022-10-07T00:30:32.225Z,18.08
2022-10-07T00:32:58.897Z,14.32
2022-10-07T00:35:25.501Z,15.00
2022-10-07T00:37:52.329Z,20.50
2022-10-07T00:40:18.932Z,24.05
2022-10-07T00:42:45.725Z,24.05
2022-10-07T00:45:18.106Z,53.45
2022-10-07T00:47:48.021Z,92.97
2022-10-07T00:50:20.633Z,82.18
2022-10-07T00:53:02.767Z,76.97
2022-10-07T00:55:31.892Z,107.03
2022-10-07T00:58:02.956Z,138.15
2022-10-07T01:00:30.274Z,63.58
2022-10-07T01:02:56.845Z,74.25
2022-10-07T01:05:23.666Z,43.17
2022-10-07T01:07:50.815Z,18.10
2022-10-07T01:10:21.708Z,27.08
2022-10-07T01:13:19.456Z,20.15
2022-10-07T01:15:50.280Z,40.63
2022-10-07T01:18:26.413Z,186.25
2022-10-07T01:21:34.713Z,49.90
2022-10-07T01:24:18.662Z,121.65
2022-10-07T01:27:01.931Z,109.85
2022-10-07T01:29:39.595Z,97.85
2022-10-07T01:32:27.366Z,130.40
2022-10-07T01:34:55.910Z,108.32
2022-10-07T01:37:27.344Z,74.70
2022-10-07T01:39:58.657Z,62.30
2022-10-07T01:42:28.384Z,14.70
2022-10-07T01:44:58.094Z,23.33
2022-10-07T01:47:28.534Z,12.23
2022-10-07T01:49:55.221Z,11.68
2022-10-07T01:53:12.793Z,11.00
2022-10-07T01:56:03.643Z,11.60
2022-10-07T01:59:10.703Z,12.88
2022-10-07T02:02:10.552Z,29.67
2022-10-07T02:05:25.370Z,15.93
2022-10-07T02:08:32.393Z,18.00
2022-10-07T02:11:25.831Z,30.40
2022-10-07T02:14:08.239Z,11.95
2022-10-07T02:16:42.195Z,35.88
2022-10-07T02:19:18.306Z,53.08
2022-10-07T02:21:49.183Z,74.78
2022-10-07T02:24:17.927Z,155.52
2022-10-07T02:26:45.945Z,142.65
2022-10-07T02:29:16.445Z,92.88
2022-10-07T02:31:45.183Z,66.22
2022-10-07T02:34:19.950Z,106.13
2022-10-07T02:37:14.845Z,69.53
2022-10-07T02:39:43.755Z,90.72
2022-10-07T02:42:30.817Z,41.05
2022-10-07T02:45:26.843Z,58.92
2022-10-07T02:48:01.944Z,43.38
2022-10-07T02:50:37.438Z,22.63
2022-10-07T02:53:05.800Z,18.02
2022-10-07T02:55:34.367Z,11.60
2022-10-07T02:58:05.369Z,22.27
2022-10-07T03:00:35.702Z,34.30
2022-10-07T03:03:05.132Z,12.82
2022-10-07T03:05:34.977Z,58.65
2022-10-07T03:08:05.869Z,46.97
2022-10-07T03:10:32.655Z,52.08
2022-10-07T03:12:59.258Z,25.42
2022-10-07T03:15:26.113Z,33.60
2022-10-07T03:17:52.890Z,35.58
2022-10-07T03:20:19.467Z,34.80
2022-10-07T03:22:46.051Z,31.67
2022-10-07T03:25:13.815Z,32.67
2022-10-07T03:27:42.903Z,28.85
2022-10-07T03:30:11.202Z,25.33
2022-10-07T03:32:41.480Z,34.35
2022-10-07T03:35:08.892Z,67.75
2022-10-07T03:37:36.438Z,18.02
2022-10-07T03:40:03.468Z,31.83
2022-10-07T03:42:30.075Z,16.85
2022-10-07T03:44:56.669Z,20.67
2022-10-07T03:47:23.448Z,10.85
2022-10-07T03:49:50.225Z,19.08
2022-10-07T03:52:16.772Z,20.08
2022-10-07T03:54:43.578Z,21.13
2022-10-07T03:57:28.718Z,24.83
2022-10-07T03:59:55.360Z,25.42
2022-10-07T04:02:23.519Z,26.58
2022-10-07T04:04:53.312Z,25.80
2022-10-07T04:07:22.130Z,27.67
2022-10-07T04:09:48.902Z,17.13
2022-10-07T04:12:15.702Z,43.88
2022-10-07T04:14:42.364Z,22.20
2022-10-07T04:17:09.190Z,21.02
2022-10-07T04:19:35.790Z,11.43
2022-10-07T04:22:08.288Z,21.23
2022-10-07T04:24:35.578Z,14.05
2022-10-07T04:27:05.009Z,22.73
2022-10-07T04:29:36.586Z,26.92
2022-10-07T04:32:05.772Z,14.63
2022-10-07T04:34:32.315Z,32.25
2022-10-07T04:37:01.283Z,14.73
2022-10-07T04:39:49.094Z,14.27
2022-10-07T04:42:34.690Z,14.85
2022-10-07T04:45:01.264Z,12.15
2022-10-07T04:47:27.876Z,19.38
2022-10-07T04:49:55.210Z,22.05
2022-10-07T04:52:21.894Z,17.77
2022-10-07T04:54:48.487Z,13.45
2022-10-07T04:57:15.075Z,14.98
2022-10-07T04:59:42.986Z,16.83
2022-10-07T05:02:09.904Z,16.67
2022-10-07T05:04:37.090Z,13.52
2022-10-07T05:07:04.247Z,15.88
2022-10-07T05:09:30.828Z,17.08
2022-10-07T05:11:57.423Z,14.77
2022-10-07T05:14:24.291Z,14.95
2022-10-07T05:16:51.666Z,15.88
2022-10-07T05:19:18.724Z,17.30
2022-10-07T05:21:45.871Z,20.83
2022-10-07T05:24:12.578Z,14.90
2022-10-07T05:26:39.151Z,16.90
2022-10-07T05:29:06.930Z,16.20
2022-10-07T05:31:33.574Z,19.48
2022-10-07T05:34:00.530Z,14.27
2022-10-07T05:36:27.255Z,17.08
2022-10-07T05:38:58.095Z,23.80
2022-10-07T05:41:25.398Z,16.85
2022-10-07T05:43:52.109Z,22.10
2022-10-07T05:46:23.729Z,18.08
2022-10-07T05:48:52.432Z,17.83
2022-10-07T05:51:20.281Z,21.15
2022-10-07T05:53:47.317Z,22.70
2022-10-07T05:56:21.458Z,18.15
2022-10-07T05:58:49.344Z,24.83
2022-10-07T06:01:21.364Z,16.40
2022-10-07T06:03:53.038Z,20.45
2022-10-07T06:06:20.388Z,26.05
2022-10-07T06:08:47.399Z,23.13
2022-10-07T06:11:35.013Z,18.45
2022-10-07T06:14:02.923Z,18.50
2022-10-07T06:16:29.625Z,19.88
2022-10-07T06:18:57.039Z,17.52
2022-10-07T06:21:28.615Z,17.65
2022-10-07T06:23:57.906Z,23.23
2022-10-07T06:26:24.666Z,17.38
2022-10-07T06:28:51.231Z,23.83
2022-10-07T06:31:22.626Z,22.33
2022-10-07T06:33:49.991Z,34.67
2022-10-07T06:36:17.406Z,17.33
2022-10-07T06:38:45.754Z,18.77
2022-10-07T06:41:12.335Z,19.45
2022-10-07T06:43:38.918Z,24.13
2022-10-07T06:46:07.024Z,21.25
2022-10-07T06:48:35.039Z,20.95
2022-10-07T06:51:06.112Z,22.10
2022-10-07T06:53:33.269Z,24.15
2022-10-07T06:56:04.399Z,23.65
2022-10-07T06:58:31.032Z,18.83
2022-10-07T07:00:59.654Z,20.83
2022-10-07T07:03:27.339Z,24.00
2022-10-07T07:05:56.934Z,22.02
2022-10-07T07:08:31.851Z,22.38
2022-10-07T07:11:26.292Z,22.98
2022-10-07T07:13:53.227Z,22.10
2022-10-07T07:16:19.931Z,25.75
2022-10-07T07:18:51.639Z,20.45
2022-10-07T07:21:18.391Z,23.35
2022-10-07T07:23:45.707Z,19.42
2022-10-07T07:26:13.036Z,19.05
2022-10-07T07:28:39.656Z,20.98
2022-10-07T07:31:10.665Z,23.00
2022-10-07T07:33:38.372Z,17.23
2022-10-07T07:36:16.522Z,19.98
2022-10-07T07:38:43.926Z,17.73
2022-10-07T07:41:11.233Z,21.85
2022-10-07T07:43:37.857Z,18.75
2022-10-07T07:46:05.056Z,21.45
2022-10-07T07:48:31.889Z,24.67
2022-10-07T07:50:58.521Z,21.65
2022-10-07T07:53:27.666Z,26.23
2022-10-07T07:55:57.778Z,22.33
2022-10-07T07:58:24.604Z,23.58
2022-10-07T08:01:06.469Z,26.90
2022-10-07T08:03:37.336Z,21.48
2022-10-07T08:06:06.440Z,25.58
2022-10-07T08:08:34.335Z,23.65
2022-10-07T08:11:12.812Z,27.40
2022-10-07T08:13:41.252Z,23.95
2022-10-07T08:16:09.923Z,23.00
2022-10-07T08:18:36.978Z,23.42
2022-10-07T08:21:05.181Z,21.55
2022-10-07T08:23:32.147Z,24.63
2022-10-07T08:26:00.026Z,25.90
2022-10-07T08:28:27.707Z,26.05
2022-10-07T08:30:55.189Z,28.92
2022-10-07T08:33:22.521Z,22.25
2022-10-07T08:35:57.935Z,24.65
2022-10-07T08:38:24.954Z,28.17
2022-10-07T08:40:53.570Z,24.13
2022-10-07T08:43:23.770Z,28.73
2022-10-07T08:45:52.814Z,28.10
2022-10-07T08:48:29.374Z,24.38
2022-10-07T08:51:05.155Z,20.05
2022-10-07T08:53:34.448Z,27.23
2022-10-07T08:56:09.985Z,30.85
2022-10-07T08:59:32.580Z,25.65
2022-10-07T09:02:40.147Z,25.40
2022-10-07T09:05:34.094Z,30.40
2022-10-07T09:08:17.771Z,21.05
2022-10-07T09:10:50.217Z,25.23
2022-10-07T09:16:11.239Z,21.75
2022-10-07T09:18:41.030Z,26.63
2022-10-07T09:21:16.558Z,28.98
2022-10-07T09:23:43.398Z,21.15
2022-10-07T09:26:12.821Z,33.22
2022-10-07T09:28:39.897Z,26.23
2022-10-07T09:31:07.678Z,25.67
2022-10-07T09:33:42.032Z,30.33
2022-10-07T09:36:18.331Z,29.48
2022-10-07T09:38:48.067Z,25.20
2022-10-07T09:41:22.904Z,23.08
2022-10-07T09:43:57.319Z,33.83
2022-10-07T09:46:53.059Z,25.83
2022-10-07T09:49:45.074Z,25.75
2022-10-07T09:52:26.494Z,25.13
2022-10-07T09:54:55.774Z,28.73
2022-10-07T09:57:35.242Z,26.13
2022-10-07T10:00:23.133Z,24.20
2022-10-07T10:02:54.137Z,43.65
2022-10-07T10:05:27.898Z,32.53
2022-10-07T10:08:01.690Z,34.30
2022-10-07T10:10:36.319Z,31.67
2022-10-07T10:13:05.655Z,28.77
2022-10-07T10:15:43.165Z,29.95
2022-10-07T10:18:39.713Z,30.10
2022-10-07T10:21:23.088Z,31.77
2022-10-07T10:23:53.378Z,28.73
2022-10-07T10:26:36.664Z,24.52
2022-10-07T10:29:29.480Z,26.75
2022-10-07T10:35:34.283Z,22.65
2022-10-07T10:38:19.689Z,27.95
2022-10-07T10:41:03.154Z,22.75
2022-10-07T10:43:55.168Z,24.40
2022-10-07T10:46:27.404Z,20.47
2022-10-07T10:49:17.192Z,24.13
2022-10-07T10:52:20.774Z,23.48
2022-10-07T10:55:22.806Z,24.88
2022-10-07T10:58:16.714Z,21.80
2022-10-07T11:01:28.083Z,19.83
2022-10-07T11:04:20.732Z,23.52
2022-10-07T11:06:58.749Z,23.25
2022-10-07T11:09:41.780Z,27.02
2022-10-07T11:12:23.723Z,23.23
2022-10-07T11:14:57.941Z,23.98
2022-10-07T11:17:30.840Z,28.38
2022-10-07T11:20:18.847Z,20.35
2022-10-07T11:22:52.574Z,20.27
2022-10-07T11:25:31.124Z,25.73
2022-10-07T11:28:07.193Z,24.02
2022-10-07T11:30:45.622Z,21.85
2022-10-07T11:33:20.394Z,23.60
2022-10-07T11:36:03.881Z,25.42
2022-10-07T11:38:35.746Z,26.38
2022-10-07T11:41:22.474Z,22.83
2022-10-07T11:43:58.325Z,25.77
2022-10-07T11:46:32.285Z,26.38
2022-10-07T11:49:31.524Z,23.70
2022-10-07T11:52:01.019Z,29.58
2022-10-07T11:54:31.761Z,28.60
2022-10-07T11:57:00.560Z,26.10
2022-10-07T11:59:44.442Z,30.40
2022-10-07T12:02:49.715Z,26.90
2022-10-07T12:05:57.647Z,25.63
2022-10-07T12:08:35.863Z,25.92
2022-10-07T12:11:39.674Z,26.48
2022-10-07T12:14:32.781Z,30.50
2022-10-07T12:17:18.620Z,26.65
2022-10-07T12:19:45.409Z,27.70
2022-10-07T12:22:15.348Z,29.75
2022-10-07T12:24:46.037Z,47.42
2022-10-07T12:27:24.435Z,38.65
2022-10-07T12:30:02.071Z,30.88
2022-10-07T12:32:56.367Z,30.17
2022-10-07T12:35:54.567Z,32.67
2022-10-07T12:38:30.871Z,32.90
2022-10-07T12:41:14.951Z,32.97
2022-10-07T12:44:37.090Z,30.25
2022-10-07T12:47:19.249Z,61.17
2022-10-07T12:50:01.810Z,119.63
2022-10-07T12:53:00.927Z,35.55
2022-10-07T12:55:37.306Z,44.20
2022-10-07T12:59:04.619Z,31.30
2022-10-07T13:01:59.316Z,37.50
2022-10-07T13:04:58.662Z,40.42
2022-10-07T13:07:54.368Z,39.72
2022-10-07T13:10:42.474Z,37.65
2022-10-07T13:13:21.721Z,36.80
2022-10-07T13:15:56.936Z,44.80
2022-10-07T13:19:07.131Z,39.53
2022-10-07T13:21:43.948Z,39.42
2022-10-07T13:24:18.602Z,37.80
2022-10-07T13:26:46.022Z,37.85
2022-10-07T13:29:39.415Z,34.40
2022-10-07T13:32:37.058Z,40.47
2022-10-07T13:35:36.213Z,34.70
2022-10-07T13:38:05.493Z,37.72
2022-10-07T13:40:35.733Z,39.45
2022-10-07T13:43:07.192Z,38.88
2022-10-07T13:45:43.605Z,37.40
2022-10-07T13:48:23.488Z,43.70
2022-10-07T13:50:53.827Z,48.83
2022-10-07T13:53:26.215Z,52.05
2022-10-07T13:58:33.216Z,44.88
2022-10-07T14:01:04.485Z,52.00
2022-10-07T14:03:31.470Z,49.83
2022-10-07T14:05:58.122Z,51.70
2022-10-07T14:08:30.409Z,52.20
2022-10-07T14:11:13.179Z,50.83
2022-10-07T14:13:43.147Z,53.92
2022-10-07T14:16:22.355Z,53.55
2022-10-07T14:18:49.635Z,57.53
2022-10-07T14:21:17.423Z,57.47
2022-10-07T14:23:46.993Z,65.20
2022-10-07T14:26:18.041Z,74.18
2022-10-07T14:28:45.123Z,66.55
2022-10-07T14:31:39.502Z,68.07
2022-10-07T14:34:35.546Z,64.32
2022-10-07T14:37:31.071Z,62.97
2022-10-07T14:39:58.624Z,69.43
2022-10-07T14:42:30.361Z,63.85
2022-10-07T14:44:57.871Z,65.88
2022-10-07T14:47:28.104Z,61.38
2022-10-07T14:49:56.861Z,59.28
2022-10-07T14:52:35.310Z,54.88
2022-10-07T14:55:17.033Z,57.05
2022-10-07T14:57:44.214Z,52.33
2022-10-07T15:00:20.234Z,56.65
2022-10-07T15:02:47.806Z,57.85
2022-10-07T15:05:14.979Z,69.60
2022-10-07T15:07:42.488Z,69.55
2022-10-07T15:10:21.510Z,51.80
2022-10-07T15:12:48.659Z,50.30
2022-10-07T15:15:16.030Z,50.75
2022-10-07T15:17:43.176Z,55.85
2022-10-07T15:20:12.048Z,52.08
2022-10-07T15:22:38.810Z,55.60
2022-10-07T15:25:06.922Z,48.75
2022-10-07T15:27:33.855Z,43.03
2022-10-07T15:30:00.521Z,52.58
2022-10-07T15:32:30.267Z,55.25
2022-10-07T15:34:58.079Z,49.00
2022-10-07T15:37:27.691Z,86.82
2022-10-07T15:39:54.777Z,98.72
2022-10-07T15:42:24.227Z,56.92
2022-10-07T15:44:51.821Z,71.07
2022-10-07T15:47:18.833Z,54.47
2022-10-07T15:49:45.473Z,41.33
2022-10-07T15:52:12.325Z,39.25
2022-10-07T15:54:39.158Z,47.58
2022-10-07T15:57:06.249Z,42.38
2022-10-07T15:59:33.020Z,44.55
2022-10-07T16:01:59.858Z,46.60
2022-10-07T16:04:26.872Z,43.65
2022-10-07T16:06:53.462Z,35.22
2022-10-07T16:09:23.698Z,40.70
2022-10-07T16:11:50.437Z,40.95
2022-10-07T16:14:17.119Z,42.90
2022-10-07T16:16:43.973Z,41.42
2022-10-07T16:19:12.237Z,45.85
2022-10-07T16:21:41.413Z,47.72
2022-10-07T16:24:13.345Z,48.42
2022-10-07T16:26:39.916Z,51.70
2022-10-07T16:29:31.162Z,44.58
2022-10-07T16:31:59.187Z,43.00
2022-10-07T16:34:28.058Z,53.80
2022-10-07T16:36:55.712Z,55.42
2022-10-07T16:39:22.608Z,45.97
2022-10-07T16:41:51.782Z,56.00
2022-10-07T16:44:19.382Z,57.47
2022-10-07T16:46:46.626Z,50.72
2022-10-07T16:49:15.667Z,50.40
2022-10-07T16:51:42.835Z,51.72
2022-10-07T16:54:15.839Z,46.90
2022-10-07T16:56:47.034Z,58.83
2022-10-07T16:59:22.300Z,56.72
2022-10-07T17:01:51.755Z,52.80
2022-10-07T17:04:18.582Z,50.10
2022-10-07T17:06:45.646Z,53.85
2022-10-07T17:09:13.129Z,67.45
2022-10-07T17:11:40.485Z,48.33
2022-10-07T17:14:18.745Z,57.78
2022-10-07T17:16:53.301Z,47.00
2022-10-07T17:19:22.509Z,51.95
2022-10-07T17:21:50.372Z,57.55
2022-10-07T17:24:18.783Z,53.53
2022-10-07T17:26:46.400Z,50.42
2022-10-07T17:29:16.517Z,49.97
2022-10-07T17:31:43.879Z,49.17
2022-10-07T17:34:11.987Z,46.90
2022-10-07T17:36:39.348Z,51.88
2022-10-07T17:39:06.214Z,57.67
2022-10-07T17:41:35.055Z,52.70
2022-10-07T17:44:03.422Z,60.75
2022-10-07T17:46:33.037Z,60.95
2022-10-07T17:49:02.073Z,55.53
2022-10-07T17:51:31.264Z,53.35
2022-10-07T17:54:02.540Z,57.80
2022-10-07T17:56:31.983Z,52.22
2022-10-07T17:58:59.151Z,54.67
2022-10-07T18:01:31.928Z,54.63
2022-10-07T18:04:00.812Z,58.45
2022-10-07T18:06:30.374Z,65.13
2022-10-07T18:08:59.190Z,50.60
2022-10-07T18:11:46.577Z,57.30
2022-10-07T18:14:31.709Z,62.30
2022-10-07T18:16:58.450Z,68.45
2022-10-07T18:19:26.543Z,62.30
2022-10-07T18:21:56.254Z,63.58
2022-10-07T18:24:29.344Z,66.22
2022-10-07T18:27:00.256Z,59.13
2022-10-07T18:29:31.951Z,62.08
2022-10-07T18:31:59.842Z,65.80
2022-10-07T18:34:26.699Z,70.28
2022-10-07T18:36:56.508Z,64.90
2022-10-07T18:39:24.371Z,64.63
2022-10-07T18:41:51.411Z,71.60
2022-10-07T18:44:18.026Z,66.07
2022-10-07T18:46:44.859Z,66.47
2022-10-07T18:49:19.343Z,74.25
2022-10-07T18:51:47.414Z,75.38
2022-10-07T18:54:14.135Z,75.13
2022-10-07T18:56:41.712Z,67.03
2022-10-07T18:59:09.953Z,82.18
2022-10-07T19:01:37.692Z,79.72
2022-10-07T19:04:05.856Z,75.50
2022-10-07T19:06:35.124Z,87.25
2022-10-07T19:09:05.258Z,74.97
2022-10-07T19:11:31.978Z,81.05
2022-10-07T19:14:01.614Z,74.15
2022-10-07T19:16:37.341Z,71.00
2022-10-07T19:19:18.777Z,80.95
2022-10-07T19:21:47.460Z,81.57
2022-10-07T19:24:15.635Z,83.32
2022-10-07T19:26:45.133Z,75.60
2022-10-07T19:29:13.446Z,69.85
2022-10-07T19:31:42.939Z,68.93
2022-10-07T19:34:18.929Z,82.50
2022-10-07T19:36:48.627Z,128.30
2022-10-07T19:39:21.027Z,109.90
2022-10-07T19:44:16.312Z,77.47
2022-10-07T19:46:44.603Z,79.50
2022-10-07T19:49:11.963Z,90.60
2022-10-07T19:51:40.256Z,86.03
2022-10-07T19:54:10.124Z,120.30
2022-10-07T19:56:37.761Z,87.47
2022-10-07T19:59:07.319Z,83.72
2022-10-07T20:01:37.513Z,84.43
2022-10-07T20:04:11.062Z,74.78
2022-10-07T20:06:37.805Z,74.45
2022-10-07T20:09:06.739Z,82.20
2022-10-07T20:11:33.776Z,82.20
2022-10-07T20:14:02.987Z,87.55
2022-10-07T20:16:31.225Z,78.22
2022-10-07T20:19:05.801Z,77.10
2022-10-07T20:21:35.750Z,74.25
2022-10-07T20:24:04.129Z,88.40
2022-10-07T20:26:33.390Z,74.72
2022-10-07T20:29:04.467Z,85.68
2022-10-07T20:31:34.785Z,72.80
2022-10-07T20:34:02.747Z,94.80
2022-10-07T20:36:31.854Z,74.30
2022-10-07T20:39:18.996Z,75.80
2022-10-07T20:42:04.553Z,87.05
2022-10-07T20:44:31.330Z,88.32
2022-10-07T20:46:58.372Z,74.15
2022-10-07T20:49:29.990Z,94.32
2022-10-07T20:52:02.193Z,98.20
2022-10-07T20:54:29.866Z,69.80
2022-10-07T20:56:57.942Z,74.70
2022-10-07T20:59:26.414Z,72.63
2022-10-07T21:01:53.818Z,67.80
2022-10-07T21:04:21.608Z,81.30
2022-10-07T21:06:52.287Z,77.82
2022-10-07T21:09:19.679Z,77.28
2022-10-07T21:11:47.322Z,94.65
2022-10-07T21:14:14.534Z,100.72
2022-10-07T21:16:42.247Z,128.98
2022-10-07T21:19:09.002Z,92.03
2022-10-07T21:21:35.715Z,86.75
2022-10-07T21:24:02.317Z,119.75
2022-10-07T21:26:28.893Z,112.25
2022-10-07T21:28:55.674Z,146.25
2022-10-07T21:31:22.770Z,99.43
2022-10-07T21:33:51.874Z,141.70
2022-10-07T21:36:22.096Z,128.32
2022-10-07T21:38:58.240Z,100.45
2022-10-07T21:41:27.705Z,175.82
2022-10-07T21:43:55.967Z,118.80
2022-10-07T21:46:24.509Z,132.75
2022-10-07T21:48:52.118Z,220.85
2022-10-07T21:51:18.662Z,195.25
2022-10-07T21:53:51.087Z,241.88
2022-10-07T21:58:46.908Z,214.35
2022-10-07T22:01:16.536Z,141.30
2022-10-07T22:03:43.918Z,145.63
2022-10-07T22:06:16.202Z,187.02
2022-10-07T22:08:45.001Z,141.80
2022-10-07T22:11:19.403Z,161.02
2022-10-07T22:13:55.271Z,121.72
2022-10-07T22:16:22.974Z,249.18
2022-10-07T22:18:51.880Z,173.38
2022-10-07T22:21:24.625Z,124.68
2022-10-07T22:23:53.913Z,253.50
2022-10-07T22:26:23.899Z,329.20
2022-10-07T22:28:50.820Z,231.65
2022-10-07T22:31:18.328Z,221.30
2022-10-07T22:33:51.156Z,229.77
2022-10-07T22:36:18.010Z,258.33
2022-10-07T22:38:44.901Z,137.75
2022-10-07T22:41:16.437Z,178.15
2022-10-07T22:43:44.677Z,164.13
2022-10-07T22:46:14.279Z,148.13
2022-10-07T22:48:43.247Z,194.05
2022-10-07T22:51:14.837Z,193.32
2022-10-07T22:53:43.686Z,192.30
2022-10-07T22:56:14.165Z,112.80
2022-10-07T22:58:41.972Z,140.57
2022-10-07T23:01:11.608Z,106.70
2022-10-07T23:03:39.817Z,72.10
2022-10-07T23:06:07.427Z,46.22
2022-10-07T23:08:38.697Z,42.20
2022-10-07T23:11:06.400Z,32.75
2022-10-07T23:13:36.661Z,50.08
2022-10-07T23:16:06.777Z,35.03
2022-10-07T23:18:33.730Z,26.23
2022-10-07T23:21:13.189Z,24.15
2022-10-07T23:23:42.222Z,28.75
2022-10-07T23:26:14.186Z,23.98
2022-10-07T23:28:41.817Z,23.20
2022-10-07T23:31:12.055Z,23.67
2022-10-07T23:33:38.942Z,22.25
2022-10-07T23:36:08.865Z,27.95
2022-10-07T23:38:37.246Z,23.58
2022-10-07T23:41:04.143Z,23.48
2022-10-07T23:43:33.269Z,21.73
2022-10-07T23:46:01.341Z,20.42
2022-10-07T23:48:28.236Z,24.85
2022-10-07T23:50:57.996Z,26.27
2022-10-07T23:53:24.688Z,21.50
2022-10-07T23:55:53.017Z,24.65
2022-10-07T23:58:22.357Z,27.10
